createdAt,value
2023-04-07T00:01:12.630Z,4.30
2023-04-07T00:03:41.381Z,4.20
2023-04-07T00:06:08.244Z,3.90
2023-04-07T00:08:35.565Z,4.00
2023-04-07T00:11:02.262Z,3.90
2023-04-07T00:13:30.666Z,3.70
2023-04-07T00:15:57.667Z,3.60
2023-04-07T00:18:25.282Z,3.60
2023-04-07T00:20:52.043Z,3.60
2023-04-07T00:23:19.908Z,3.60
2023-04-07T00:25:49.272Z,3.60
2023-04-07T00:28:16.029Z,3.60
2023-04-07T00:30:43.168Z,3.60
2023-04-07T00:33:10.095Z,3.70
2023-04-07T00:35:37.181Z,3.90
2023-04-07T00:38:04.303Z,3.90
2023-04-07T00:40:32.633Z,3.90
2023-04-07T00:42:59.746Z,3.80
2023-04-07T00:45:26.973Z,3.70
2023-04-07T00:47:54.233Z,3.70
2023-04-07T00:50:21.175Z,3.70
2023-04-07T00:52:48.001Z,3.70
2023-04-07T00:55:14.733Z,3.70
2023-04-07T00:57:41.906Z,3.60
2023-04-07T01:00:16.153Z,3.60
2023-04-07T01:03:06.417Z,3.60
2023-04-07T01:05:42.938Z,3.70
2023-04-07T01:08:36.422Z,3.80
2023-04-07T01:11:09.331Z,3.80
2023-04-07T01:13:48.152Z,3.80
2023-04-07T01:16:23.131Z,4.00
2023-04-07T01:18:54.859Z,3.90
2023-04-07T01:21:27.267Z,3.70
2023-04-07T01:24:20.671Z,3.80
2023-04-07T01:26:50.926Z,3.80
2023-04-07T01:29:42.258Z,3.70
2023-04-07T01:32:12.267Z,3.90
2023-04-07T01:34:40.881Z,3.90
2023-04-07T01:37:08.553Z,4.00
2023-04-07T01:39:37.465Z,4.10
2023-04-07T01:42:07.288Z,3.90
2023-04-07T01:44:35.622Z,3.90
2023-04-07T01:47:02.903Z,3.70
2023-04-07T01:49:32.140Z,3.60
2023-04-07T01:52:00.368Z,3.60
2023-04-07T01:54:28.035Z,3.50
2023-04-07T01:56:56.960Z,3.50
2023-04-07T01:59:23.769Z,3.60
2023-04-07T02:01:53.820Z,3.60
2023-04-07T02:04:40.850Z,3.60
2023-04-07T02:07:22.186Z,3.50
2023-04-07T02:09:53.582Z,3.50
2023-04-07T02:12:21.704Z,3.50
2023-04-07T02:14:48.635Z,3.50
2023-04-07T02:17:16.594Z,3.40
2023-04-07T02:19:45.027Z,3.40
2023-04-07T02:22:13.765Z,3.50
2023-04-07T02:24:43.678Z,3.40
2023-04-07T02:27:10.611Z,3.40
2023-04-07T02:29:37.953Z,3.30
2023-04-07T02:32:06.653Z,3.40
2023-04-07T02:34:33.796Z,3.40
2023-04-07T02:37:00.996Z,3.40
2023-04-07T02:39:28.149Z,3.30
2023-04-07T02:41:56.487Z,3.40
2023-04-07T02:44:23.277Z,3.30
2023-04-07T02:46:50.376Z,3.20
2023-04-07T02:49:17.087Z,3.20
2023-04-07T02:51:43.842Z,3.30
2023-04-07T02:54:10.614Z,3.30
2023-04-07T02:56:37.366Z,3.30
2023-04-07T02:59:04.449Z,3.30
2023-04-07T03:01:31.219Z,3.30
2023-04-07T03:03:58.175Z,3.30
2023-04-07T03:06:25.016Z,3.30
2023-04-07T03:08:52.228Z,3.30
2023-04-07T03:11:18.964Z,3.30
2023-04-07T03:13:46.333Z,3.30
2023-04-07T03:16:13.004Z,3.30
2023-04-07T03:18:40.096Z,3.40
2023-04-07T03:21:06.861Z,3.30
2023-04-07T03:23:33.562Z,3.30
2023-04-07T03:26:00.310Z,3.20
2023-04-07T03:28:27.033Z,3.20
2023-04-07T03:30:54.282Z,3.20
2023-04-07T03:33:21.156Z,3.10
2023-04-07T03:35:48.294Z,3.10
2023-04-07T03:38:15.099Z,3.00
2023-04-07T03:40:42.254Z,3.00
2023-04-07T03:43:12.599Z,3.10
2023-04-07T03:45:39.885Z,3.10
2023-04-07T03:48:10.568Z,3.20
2023-04-07T03:50:41.262Z,3.10
2023-04-07T03:53:08.452Z,3.10
2023-04-07T03:55:36.228Z,3.20
2023-04-07T03:58:03.372Z,3.20
2023-04-07T04:00:31.825Z,3.10
2023-04-07T04:02:59.318Z,3.00
2023-04-07T04:05:26.468Z,3.10
2023-04-07T04:07:53.782Z,3.00
2023-04-07T04:10:21.457Z,3.10
2023-04-07T04:12:48.969Z,3.10
2023-04-07T04:15:16.778Z,3.10
2023-04-07T04:17:43.556Z,3.10
2023-04-07T04:20:10.838Z,3.20
2023-04-07T04:22:38.026Z,3.10
2023-04-07T04:25:05.169Z,3.20
2023-04-07T04:27:31.856Z,3.20
2023-04-07T04:29:58.972Z,3.20
2023-04-07T04:32:25.814Z,3.10
2023-04-07T04:34:52.985Z,3.00
2023-04-07T04:37:20.347Z,3.10
2023-04-07T04:39:47.405Z,3.10
2023-04-07T04:42:14.136Z,3.10
2023-04-07T04:44:42.166Z,3.10
2023-04-07T04:47:09.189Z,3.10
2023-04-07T04:49:36.501Z,2.90
2023-04-07T04:52:03.246Z,3.00
2023-04-07T04:54:30.574Z,3.00
2023-04-07T04:56:57.778Z,3.00
2023-04-07T04:59:24.544Z,3.00
2023-04-07T05:01:52.312Z,3.10
2023-04-07T05:04:19.334Z,3.10
2023-04-07T05:06:46.630Z,3.10
2023-04-07T05:09:13.360Z,3.20
2023-04-07T05:11:41.395Z,3.10
2023-04-07T05:14:08.132Z,3.10
2023-04-07T05:16:36.708Z,3.20
2023-04-07T05:19:03.590Z,3.20
2023-04-07T05:21:31.018Z,3.20
2023-04-07T05:23:58.115Z,3.10
2023-04-07T05:26:24.818Z,3.20
2023-04-07T05:28:52.088Z,3.20
2023-04-07T05:31:20.344Z,3.20
2023-04-07T05:33:47.101Z,3.20
2023-04-07T05:36:13.920Z,3.20
2023-04-07T05:38:41.606Z,3.20
2023-04-07T05:41:08.813Z,3.10
2023-04-07T05:43:35.721Z,3.10
2023-04-07T05:46:02.577Z,3.10
2023-04-07T05:48:30.307Z,3.10
2023-04-07T05:51:02.407Z,3.10
2023-04-07T05:53:29.276Z,3.10
2023-04-07T05:55:56.542Z,3.10
2023-04-07T05:58:23.423Z,3.10
2023-04-07T06:00:50.621Z,3.20
2023-04-07T06:03:21.994Z,3.30
2023-04-07T06:05:48.809Z,3.40
2023-04-07T06:08:17.989Z,3.50
2023-04-07T06:10:44.758Z,3.40
2023-04-07T06:13:14.393Z,3.30
2023-04-07T06:15:41.728Z,3.40
2023-04-07T06:18:08.886Z,3.50
2023-04-07T06:20:36.669Z,3.50
2023-04-07T06:23:03.453Z,3.60
2023-04-07T06:25:30.827Z,3.70
2023-04-07T06:27:58.016Z,3.90
2023-04-07T06:30:24.722Z,3.90
2023-04-07T06:32:52.018Z,3.80
2023-04-07T06:35:18.774Z,3.80
2023-04-07T06:37:45.895Z,3.80
2023-04-07T06:40:12.659Z,3.90
2023-04-07T06:42:39.924Z,4.00
2023-04-07T06:45:07.257Z,4.00
2023-04-07T06:47:37.063Z,4.00
2023-04-07T06:50:04.186Z,4.00
2023-04-07T06:52:31.160Z,4.00
2023-04-07T06:54:57.849Z,4.00
2023-04-07T06:57:24.702Z,4.00
2023-04-07T06:59:51.588Z,4.00
2023-04-07T07:02:20.024Z,4.30
2023-04-07T07:04:47.541Z,4.30
2023-04-07T07:07:14.279Z,4.30
2023-04-07T07:09:40.988Z,4.30
2023-04-07T07:12:07.760Z,4.60
2023-04-07T07:14:34.897Z,4.50
2023-04-07T07:17:01.712Z,4.40
2023-04-07T07:19:28.820Z,4.30
2023-04-07T07:21:55.800Z,4.40
2023-04-07T07:24:22.596Z,4.40
2023-04-07T07:26:49.732Z,4.40
2023-04-07T07:29:16.559Z,4.30
2023-04-07T07:31:43.557Z,4.20
2023-04-07T07:34:10.297Z,4.20
2023-04-07T07:36:37.658Z,4.40
2023-04-07T07:39:05.492Z,4.50
2023-04-07T07:41:32.673Z,4.30
2023-04-07T07:43:59.375Z,4.50
2023-04-07T07:46:29.672Z,4.40
2023-04-07T07:48:56.490Z,4.30
2023-04-07T07:51:23.469Z,4.30
2023-04-07T07:53:50.338Z,4.40
2023-04-07T07:56:17.138Z,4.40
2023-04-07T07:58:43.953Z,4.50
2023-04-07T08:01:11.123Z,4.60
2023-04-07T08:03:40.600Z,4.60
2023-04-07T08:06:10.017Z,4.60
2023-04-07T08:08:43.213Z,4.50
2023-04-07T08:11:10.053Z,4.50
2023-04-07T08:13:37.260Z,4.70
2023-04-07T08:16:04.185Z,4.60
2023-04-07T08:18:31.141Z,4.40
2023-04-07T08:20:57.927Z,4.30
2023-04-07T08:23:25.077Z,4.20
2023-04-07T08:25:51.789Z,4.30
2023-04-07T08:28:18.669Z,4.50
2023-04-07T08:30:45.569Z,4.60
2023-04-07T08:33:12.303Z,5.00
2023-04-07T08:35:39.041Z,5.10
2023-04-07T08:38:06.206Z,5.00
2023-04-07T08:40:33.697Z,5.00
2023-04-07T08:43:01.921Z,5.20
2023-04-07T08:45:30.118Z,5.40
2023-04-07T08:47:59.493Z,5.30
2023-04-07T08:50:28.243Z,5.40
2023-04-07T08:52:56.804Z,5.70
2023-04-07T08:55:24.122Z,5.70
2023-04-07T08:57:54.790Z,5.80
2023-04-07T09:00:21.833Z,5.80
2023-04-07T09:02:49.915Z,5.90
2023-04-07T09:05:16.760Z,5.80
2023-04-07T09:07:43.937Z,5.90
2023-04-07T09:10:11.478Z,6.10
2023-04-07T09:12:39.208Z,6.30
2023-04-07T09:15:07.575Z,6.60
2023-04-07T09:17:34.755Z,6.50
2023-04-07T09:20:02.040Z,6.20
2023-04-07T09:22:40.324Z,6.20
2023-04-07T09:25:26.919Z,6.20
2023-04-07T09:28:04.896Z,6.20
2023-04-07T09:30:33.933Z,6.20
2023-04-07T09:33:02.333Z,6.40
2023-04-07T09:35:29.983Z,6.30
2023-04-07T09:38:07.965Z,6.30
2023-04-07T09:40:36.934Z,6.00
2023-04-07T09:43:14.541Z,5.90
2023-04-07T09:45:41.399Z,5.90
2023-04-07T09:48:18.171Z,5.90
2023-04-07T09:50:49.847Z,5.90
2023-04-07T09:53:17.270Z,6.00
2023-04-07T09:55:44.436Z,6.20
2023-04-07T09:58:15.385Z,6.30
2023-04-07T10:00:43.902Z,6.30
2023-04-07T10:03:11.611Z,6.50
2023-04-07T10:05:39.448Z,6.40
2023-04-07T10:08:06.899Z,6.40
2023-04-07T10:10:37.091Z,6.30
2023-04-07T10:13:06.589Z,6.20
2023-04-07T10:15:33.809Z,6.30
2023-04-07T10:18:01.285Z,6.30
2023-04-07T10:20:29.693Z,6.20
2023-04-07T10:23:07.173Z,6.00
2023-04-07T10:25:38.726Z,6.00
2023-04-07T10:28:08.062Z,6.20
2023-04-07T10:30:36.138Z,6.30
2023-04-07T10:33:03.038Z,6.20
2023-04-07T10:36:09.089Z,6.20
2023-04-07T10:38:36.735Z,6.30
2023-04-07T10:41:37.027Z,6.60
2023-04-07T10:44:05.826Z,6.60
2023-04-07T10:47:01.774Z,6.40
2023-04-07T10:49:29.160Z,6.30
2023-04-07T10:52:15.285Z,6.10
2023-04-07T10:54:43.213Z,6.00
2023-04-07T10:57:13.003Z,6.10
2023-04-07T10:59:47.279Z,6.00
2023-04-07T11:02:17.720Z,5.80
2023-04-07T11:04:47.014Z,5.80
2023-04-07T11:07:15.042Z,5.70
2023-04-07T11:09:42.344Z,5.70
2023-04-07T11:12:09.349Z,5.60
2023-04-07T11:14:38.794Z,5.60
2023-04-07T11:17:05.486Z,5.70
2023-04-07T11:19:52.471Z,6.00
2023-04-07T11:24:49.531Z,5.90
2023-04-07T11:27:16.811Z,5.90
2023-04-07T11:29:44.163Z,5.70
2023-04-07T11:32:13.486Z,5.70
2023-04-07T11:34:40.509Z,5.70
2023-04-07T11:44:49.110Z,5.70
2023-04-07T11:47:15.866Z,5.70
2023-04-07T11:49:46.995Z,5.70
2023-04-07T11:52:13.754Z,5.70
2023-04-07T11:54:47.166Z,5.70
2023-04-07T11:57:14.847Z,5.70
2023-04-07T11:59:41.899Z,5.70
2023-04-07T12:02:10.157Z,5.90
2023-04-07T12:04:40.212Z,6.00
2023-04-07T12:07:09.623Z,6.00
2023-04-07T12:09:37.550Z,6.00
2023-04-07T12:12:06.488Z,6.00
2023-04-07T12:14:36.125Z,6.20
2023-04-07T12:17:03.856Z,6.20
2023-04-07T12:19:36.138Z,6.10
2023-04-07T12:22:04.065Z,6.20
2023-04-07T12:24:32.455Z,6.10
2023-04-07T12:26:59.907Z,6.20
2023-04-07T12:29:26.739Z,6.30
2023-04-07T12:31:53.594Z,6.50
2023-04-07T12:34:20.692Z,6.50
2023-04-07T12:36:48.313Z,6.40
2023-04-07T12:39:16.133Z,6.40
2023-04-07T12:41:44.163Z,6.50
2023-04-07T12:44:11.199Z,6.60
2023-04-07T12:46:42.189Z,6.60
2023-04-07T12:49:09.125Z,6.60
2023-04-07T12:51:35.961Z,6.70
2023-04-07T12:54:02.675Z,6.80
2023-04-07T12:56:32.250Z,6.90
2023-04-07T12:59:06.825Z,6.90
2023-04-07T13:01:37.345Z,6.80
2023-04-07T13:04:05.815Z,6.90
2023-04-07T13:06:32.803Z,6.90
2023-04-07T13:09:02.007Z,6.70
2023-04-07T13:11:28.768Z,6.70
2023-04-07T13:13:57.389Z,6.60
2023-04-07T13:16:25.484Z,6.60
2023-04-07T13:18:52.680Z,6.50
2023-04-07T13:23:52.780Z,6.50
2023-04-07T13:26:19.617Z,6.40
2023-04-07T13:28:47.844Z,6.30
2023-04-07T13:31:16.516Z,6.30
2023-04-07T13:33:43.502Z,6.30
2023-04-07T13:36:10.401Z,6.30
2023-04-07T13:38:37.186Z,6.20
2023-04-07T13:41:04.217Z,6.10
2023-04-07T13:43:36.314Z,6.00
2023-04-07T13:46:03.034Z,6.10
2023-04-07T13:48:29.805Z,6.10
2023-04-07T13:50:56.614Z,6.10
2023-04-07T13:53:26.593Z,6.00
2023-04-07T13:55:53.307Z,6.00
2023-04-07T13:58:22.015Z,5.90
2023-04-07T14:00:48.782Z,6.10
2023-04-07T14:03:15.884Z,5.90
2023-04-07T14:05:45.425Z,6.00
2023-04-07T14:08:12.245Z,5.90
2023-04-07T14:10:42.459Z,6.00
2023-04-07T14:13:09.192Z,5.90
2023-04-07T14:15:35.936Z,6.00
2023-04-07T14:18:09.944Z,5.90
2023-04-07T14:20:38.050Z,5.80
2023-04-07T14:23:05.444Z,5.70
2023-04-07T14:25:32.404Z,5.50
2023-04-07T14:27:59.344Z,5.50
2023-04-07T14:30:26.193Z,5.40
2023-04-07T14:32:53.595Z,5.30
2023-04-07T14:35:22.780Z,5.40
2023-04-07T14:37:49.624Z,5.30
2023-04-07T14:40:17.355Z,5.20
2023-04-07T14:42:44.037Z,5.20
2023-04-07T14:45:16.874Z,5.30
2023-04-07T14:47:43.648Z,5.40
2023-04-07T14:50:13.034Z,5.40
2023-04-07T14:52:39.943Z,5.30
2023-04-07T14:55:07.044Z,5.30
2023-04-07T14:57:34.135Z,5.40
2023-04-07T15:00:01.608Z,5.40
2023-04-07T15:02:29.385Z,5.40
2023-04-07T15:04:56.799Z,5.50
2023-04-07T15:07:23.756Z,5.60
2023-04-07T15:09:50.410Z,5.70
2023-04-07T15:12:17.202Z,5.70
2023-04-07T15:14:45.921Z,5.60
2023-04-07T15:17:13.108Z,5.40
2023-04-07T15:19:39.863Z,5.40
2023-04-07T15:22:06.634Z,5.40
2023-04-07T15:24:33.396Z,5.40
2023-04-07T15:27:00.293Z,5.50
2023-04-07T15:29:27.066Z,5.50
2023-04-07T15:31:53.944Z,5.40
2023-04-07T15:34:20.860Z,5.40
2023-04-07T15:36:47.548Z,5.40
2023-04-07T15:39:15.142Z,5.60
2023-04-07T15:41:43.244Z,5.60
2023-04-07T15:44:09.992Z,5.60
2023-04-07T15:46:36.725Z,5.60
2023-04-07T15:49:03.453Z,5.60
2023-04-07T15:51:31.085Z,5.60
2023-04-07T15:53:57.865Z,5.50
2023-04-07T15:56:24.810Z,5.50
2023-04-07T15:58:55.132Z,5.40
2023-04-07T16:01:23.545Z,5.40
2023-04-07T16:03:51.613Z,5.40
2023-04-07T16:06:20.282Z,5.50
2023-04-07T16:08:47.107Z,5.40
2023-04-07T16:11:13.822Z,5.50
2023-04-07T16:13:41.120Z,5.50
2023-04-07T16:16:07.989Z,5.40
2023-04-07T16:18:34.803Z,5.50
2023-04-07T16:21:04.202Z,5.50
2023-04-07T16:23:31.380Z,5.50
2023-04-07T16:25:58.474Z,5.50
2023-04-07T16:28:25.466Z,5.40
2023-04-07T16:30:52.204Z,5.40
2023-04-07T16:33:19.070Z,5.30
2023-04-07T16:35:45.872Z,5.40
2023-04-07T16:38:13.247Z,5.30
2023-04-07T16:40:39.937Z,5.30
2023-04-07T16:43:06.662Z,5.40
2023-04-07T16:45:33.395Z,5.30
2023-04-07T16:48:00.615Z,5.30
2023-04-07T16:50:27.744Z,5.30
2023-04-07T16:52:57.284Z,5.20
2023-04-07T16:55:24.370Z,5.20
2023-04-07T16:57:51.337Z,5.20
2023-04-07T17:00:19.877Z,5.30
2023-04-07T17:02:47.131Z,5.40
2023-04-07T17:05:14.243Z,5.30
2023-04-07T17:07:41.534Z,5.30
2023-04-07T17:10:08.760Z,5.20
2023-04-07T17:12:36.072Z,5.20
2023-04-07T17:15:03.316Z,5.20
2023-04-07T17:17:30.094Z,5.10
2023-04-07T17:19:58.341Z,5.20
2023-04-07T17:22:26.540Z,5.20
2023-04-07T17:24:53.880Z,5.20
2023-04-07T17:27:20.648Z,5.20
2023-04-07T17:29:47.366Z,5.20
2023-04-07T17:32:16.581Z,5.20
2023-04-07T17:34:45.345Z,5.30
2023-04-07T17:37:12.726Z,5.30
2023-04-07T17:39:41.831Z,5.20
2023-04-07T17:42:10.958Z,5.20
2023-04-07T17:44:37.672Z,5.30
2023-04-07T17:47:04.410Z,5.20
2023-04-07T17:49:31.336Z,5.20
2023-04-07T17:51:58.423Z,5.20
2023-04-07T17:54:25.530Z,5.20
2023-04-07T17:56:52.262Z,5.20
2023-04-07T17:59:18.985Z,5.40
2023-04-07T18:01:48.718Z,5.30
2023-04-07T18:04:15.599Z,5.30
2023-04-07T18:06:42.511Z,5.30
2023-04-07T18:09:10.160Z,5.30
2023-04-07T18:11:37.551Z,5.30
2023-04-07T18:14:04.356Z,5.20
2023-04-07T18:16:31.173Z,5.20
2023-04-07T18:18:58.062Z,5.20
2023-04-07T18:21:25.255Z,5.20
2023-04-07T18:23:51.962Z,5.20
2023-04-07T18:26:18.760Z,5.30
2023-04-07T18:28:45.567Z,5.20
2023-04-07T18:31:15.577Z,5.20
2023-04-07T18:33:42.677Z,5.40
2023-04-07T18:36:09.430Z,5.20
2023-04-07T18:38:38.481Z,5.10
2023-04-07T18:41:07.302Z,5.20
2023-04-07T18:43:34.558Z,5.30
2023-04-07T18:46:01.490Z,5.20
2023-04-07T18:48:28.510Z,5.20
2023-04-07T18:50:56.624Z,5.30
2023-04-07T18:53:26.426Z,5.30
2023-04-07T18:55:53.128Z,5.30
2023-04-07T18:58:20.140Z,5.20
2023-04-07T19:00:49.766Z,5.30
2023-04-07T19:03:17.055Z,5.20
2023-04-07T19:05:47.214Z,5.20
2023-04-07T19:08:16.399Z,5.20
2023-04-07T19:10:43.784Z,5.20
2023-04-07T19:13:15.543Z,5.20
2023-04-07T19:15:59.252Z,5.20
2023-04-07T19:18:28.607Z,5.10
2023-04-07T19:20:56.037Z,5.20
2023-04-07T19:23:22.918Z,5.20
2023-04-07T19:25:53.318Z,5.40
2023-04-07T19:28:20.371Z,5.30
2023-04-07T19:30:47.459Z,5.30
2023-04-07T19:33:16.734Z,5.20
2023-04-07T19:35:43.584Z,5.40
2023-04-07T19:38:10.415Z,5.30
2023-04-07T19:40:37.347Z,5.40
2023-04-07T19:43:04.413Z,5.30
2023-04-07T19:45:31.681Z,5.30
2023-04-07T19:47:59.242Z,5.30
2023-04-07T19:50:26.616Z,5.20
2023-04-07T19:52:53.557Z,5.20
2023-04-07T19:55:20.609Z,5.30
2023-04-07T19:57:47.781Z,5.40
2023-04-07T20:00:14.792Z,5.30
2023-04-07T20:02:41.680Z,5.30
2023-04-07T20:05:08.981Z,5.30
2023-04-07T20:07:36.434Z,5.20
2023-04-07T20:10:04.414Z,5.40
2023-04-07T20:12:31.452Z,5.30
2023-04-07T20:14:58.314Z,5.40
2023-04-07T20:17:25.259Z,5.30
2023-04-07T20:19:56.386Z,5.30
2023-04-07T20:22:23.185Z,5.20
2023-04-07T20:24:49.994Z,5.20
2023-04-07T20:27:18.294Z,5.20
2023-04-07T20:29:45.261Z,5.30
2023-04-07T20:32:12.604Z,5.30
2023-04-07T20:34:39.302Z,5.30
2023-04-07T20:37:07.484Z,5.30
2023-04-07T20:39:34.259Z,5.30
2023-04-07T20:42:02.182Z,5.20
2023-04-07T20:44:29.332Z,5.20
2023-04-07T20:46:56.645Z,5.30
2023-04-07T20:49:23.432Z,5.20
2023-04-07T20:51:50.211Z,5.20
2023-04-07T20:54:17.312Z,5.30
2023-04-07T20:56:45.093Z,5.20
2023-04-07T20:59:11.842Z,5.20
2023-04-07T21:01:40.036Z,5.20
2023-04-07T21:04:06.987Z,5.20
2023-04-07T21:06:33.819Z,5.20
2023-04-07T21:09:01.377Z,5.20
2023-04-07T21:11:28.549Z,5.30
2023-04-07T21:13:55.280Z,5.30
2023-04-07T21:16:22.923Z,5.30
2023-04-07T21:18:50.176Z,5.20
2023-04-07T21:21:17.038Z,5.40
2023-04-07T21:23:43.871Z,5.30
2023-04-07T21:26:10.716Z,5.40
2023-04-07T21:28:37.554Z,5.40
2023-04-07T21:31:04.435Z,5.30
2023-04-07T21:33:31.720Z,5.30
2023-04-07T21:36:00.519Z,5.50
2023-04-07T21:38:27.786Z,5.40
2023-04-07T21:40:54.968Z,5.50
2023-04-07T21:43:23.608Z,5.40
2023-04-07T21:45:51.107Z,5.50
2023-04-07T21:48:20.857Z,5.60
2023-04-07T21:50:47.653Z,5.60
2023-04-07T21:53:16.865Z,5.60
2023-04-07T21:55:52.028Z,5.70
2023-04-07T21:58:18.982Z,5.70
2023-04-07T22:00:48.791Z,5.70
2023-04-07T22:03:17.142Z,5.70
2023-04-07T22:05:47.352Z,5.70
2023-04-07T22:08:14.170Z,5.90
2023-04-07T22:10:40.930Z,5.70
2023-04-07T22:13:07.683Z,5.80
2023-04-07T22:15:34.428Z,5.80
2023-04-07T22:18:01.232Z,5.80
2023-04-07T22:20:28.055Z,5.80
2023-04-07T22:22:57.957Z,5.70
2023-04-07T22:25:31.738Z,6.00
2023-04-07T22:28:01.544Z,5.80
2023-04-07T22:30:31.623Z,5.90
2023-04-07T22:32:59.951Z,6.00
2023-04-07T22:35:26.736Z,5.80
2023-04-07T22:37:53.906Z,5.90
2023-04-07T22:40:21.176Z,6.10
2023-04-07T22:42:53.584Z,6.30
2023-04-07T22:45:21.361Z,6.10
2023-04-07T22:47:48.118Z,6.10
2023-04-07T22:50:17.527Z,5.90
2023-04-07T22:52:44.280Z,5.90
2023-04-07T22:55:11.444Z,5.90
2023-04-07T22:57:38.196Z,6.00
2023-04-07T23:00:05.486Z,5.90
2023-04-07T23:02:32.943Z,6.00
2023-04-07T23:04:59.865Z,5.90
2023-04-07T23:07:27.512Z,6.10
2023-04-07T23:09:56.743Z,6.20
2023-04-07T23:12:23.911Z,6.30
2023-04-07T23:14:51.068Z,6.50
2023-04-07T23:17:17.857Z,6.50
2023-04-07T23:19:44.551Z,6.50
2023-04-07T23:22:12.974Z,6.60
2023-04-07T23:24:39.751Z,6.50
2023-04-07T23:27:06.899Z,6.70
2023-04-07T23:29:33.896Z,6.80
2023-04-07T23:32:00.901Z,6.70
2023-04-07T23:34:28.138Z,6.70
2023-04-07T23:36:54.967Z,6.90
2023-04-07T23:39:21.773Z,6.90
2023-04-07T23:41:48.621Z,6.60
2023-04-07T23:44:16.126Z,6.80
2023-04-07T23:46:42.878Z,6.90
2023-04-07T23:49:10.087Z,6.80
2023-04-07T23:51:36.873Z,6.80
2023-04-07T23:54:04.030Z,7.00
2023-04-07T23:56:32.299Z,7.00
2023-04-07T23:58:59.549Z,7.00
